Scroll down
FLIGHT INFORMATION
United Airlines

UAL2390

At Arrival Gate

KORD
 KPDX
DATE: 2019-11-29
GATE:  -
GATE DEPARTURE: 19:12
TAKEOFF: 19:22
DATE: 2019-11-29
GATE:  -
LANDING: 23:27
GATE ARRIVAL: 23:33
FLIGHT DATA
Crew: MICHAEL ROTH
Speed: 474 kts Altitude: 34000 ft
Stage Length: 1507 nm
Route: 
Block Time: 4.4 Flight Time: 4.1
Fuel Used: 24361 LB
TRACK DATA
50000 FT1000 KT
AIRCRAFT INFORMATION
Aircraft Type: B738SSW
Registration: N37267
SELCAL:  MSN/LN: 31586 / 939
Operator: UNITED AIRLINES
Flights: 32 Block Time: 77.2 Flight Time: 69.4
Fuel Used: 459482 LB
  • DEPARTURE INFORMATION
    Date: 2019-11-29
    Airport: KORD
    Gate:  -
    Gate Departure: 19:12
    Takeoff: 19:22
    ARRIVAL INFORMATION
    Date: 2019-11-29
    Airport: KPDX
    Gate:  -
    Landing: 23:27
    Gate Arrival: 23:33
  • FLIGHT DATA
    Crew: MICHAEL ROTH
    Speed: 474 kts Altitude: 34000 ft
    Stage Length: 814 nm
    Route: 
    Block Time: 4.4 Flight Time: 4.1
    Fuel Used: 24361 LB
  • AIRCRAFT INFORMATION
    Aircraft Type: B738SSW
    Registration: N37267
    SELCAL:  MSN/LN: 31586 / 939
    Operator: United Airlines
    Flights: 32 Block Time: 77.2 Flight Time: 69.4
    Fuel Used: 459482 LB

DATALINK LOG | Newest first | Current as of: 2020-09-21 15:15:29
LABEL SEQUENCE CONTENT Dn/Up
QD330223:33 7.1▼ Dn
QC284023:27▼ Dn
2U0546KPDX 290253Z 09014G23KT 10SM CLR 04/M06 A2987 RMK AO2 SLP113 T00391061 51010▲ Up
2S0546KPDX▼ Dn
GA4431ADVANCED GATE ASSIGNMENTS NOT YET AVAILABLE AT THIS AIRPORT▲ Up
GR4447KPDX --:-- MAAS 00 YP/UM 00/00 WCHR/S/C 00/00/00 DIPL/VIP NO▼ Dn
2U0851KPDX 290053Z 09016G22KT 10SM FEW060 FEW100 04/M06 A2985 RMK AO2 SLP109 T00391056▲ Up
5U0855KPDX 290559Z 10013KT 10SM SKC 04/M06 A2985▲ Up
5S0855KPDX▼ Dn
2S0851KPDX▼ Dn
QB233919:22▼ Dn
A31602CLEARED TO KPDX VIA MYKIE MONNY SMIDD FSD KD87Y KD90U KU03M JKNOX HHOOD4. SQUAWK 3747.▲ Up
B31302KORD KPDX UAL2390 N37267 ▼ Dn
QA121719:12 31.5▼ Dn
A71249CLEARANCE AVAIL WITHIN 0:25 OF EDT▲ Up
B31048KORD KPDX UAL2390 N37267 ▼ Dn
A70744CLEARANCE AVAIL WITHIN 0:25 OF EDT▲ Up
B30535KORD KPDX UAL2390 N37267 ▼ Dn
Q00643[LINK ACK]▲ Up
Q00310[LINK TEST]▼ Dn


AIRCRAFT HISTORY
FLIGHT DATE FLIGHT NO. ORIGIN DESTINATION ROUTE BLOCK TIME FLIGHT TIME FUEL USED (LB) PILOT
2020-07-25UAL727PTKK PGUM PTKK WUMVE GUNSS JUNIE OPLAR GUMGE FIGOR PGUM1.61.49106James Ward
2020-07-24UAL726PTPN PTKK PTPN BIRUQ MICNO RW041.217369James Ward
2020-07-24UAL725PTSA PTPN PTSA AXTEN RW091.217251James Ward
2020-07-23UAL724PKWA PTSA PKWA STEFF LECWI PTSA1.217399James Ward
2020-07-23UAL723PKMJ PKWA PKMJ OREEO RW061.10.97023James Ward
2020-06-19UAL157PHNL PKMJ PHNL OPIHI SEBYI SECJI ZUKEY BINJO CHOKO MCFLY MANRE MAZZA EFAHU RW074.94.626346Dan Downs
2020-03-23UAL155PKMJ PHNL 4.54.225435Dan Downs
2020-03-22UAL155PKWA PKMJ 0.80.75131Dan Downs
2020-03-22UAL155PTSA PKWA 1.216962Dan Downs
2020-03-22UAL155PTPN PTSA 10.86138Dan Downs
2020-03-21UAL155PTKK PTPN 1.217487Dan Downs
2020-03-21UAL155PGUM PTKK 1.71.49742Dan Downs
2020-03-18UAL184RPLL PGUM 3.43.118694Dan Downs
2020-02-02UAL183PGUM RPLL 3.63.320734Dan Downs
2020-01-29UAL197RJAA PGUM 4.13.523099Dan Downs
2019-12-10UAL603PTKK RJAA 4.94.525188Charles Harris
2019-12-10UAL154PTPN PTKK 1.21.16910Dan Downs
2019-12-09UAL154PTSA PTPN 1.10.96172Dan Downs
2019-12-09UAL154PKWA PTSA 1.216934Dan Downs
2019-12-02UAL157PKMJ PKWA 10.85325Dan Downs
2019-12-02UAL154PHNL PKMJ 5.24.928948Dan Downs
2019-12-01UAL2380KSFO PHNL 5.3531087Dan Downs
2019-11-30UAL1675KBWI KSFO 65.834158Michael Roth
2019-11-30UAL1061KSFO KBWI 4.44.425285Michael Roth
2019-11-29UAL2233KPDX KSFO 1.61.38130Michael Roth
2019-11-29UAL2390KORD KPDX 4.44.124361Michael Roth
2019-11-24UAL1598KBOS KORD 2.72.313456Michael Roth
2019-11-23UAL822KIAD KBOS 1.31.17183Dan Downs
2019-11-23UAL340KORD KIAD 1.81.49450Dan Downs
2019-11-22UAL1121KDEN KORD 2.41.911255Michael Roth
2019-11-17UAL3477KIAD KDEN 3.73.319144Aaron Buchanan
2019-11-14UAL1114KORD KIAD 1.71.38580Aaron Buchanan